createdAt,value
2019-05-18T00:02:05.497Z,70.19
2019-05-18T00:04:35.385Z,70.45
2019-05-18T00:07:05.063Z,70.68
2019-05-18T00:09:34.757Z,71.05
2019-05-18T00:12:04.609Z,71.02
2019-05-18T00:14:34.303Z,71.18
2019-05-18T00:17:03.982Z,71.32
2019-05-18T00:19:33.878Z,71.40
2019-05-18T00:22:03.540Z,71.60
2019-05-18T00:24:33.260Z,71.68
2019-05-18T00:27:02.942Z,71.83
2019-05-18T00:29:32.619Z,72.09
2019-05-18T00:32:02.346Z,72.08
2019-05-18T00:34:32.124Z,72.09
2019-05-18T00:37:01.807Z,72.32
2019-05-18T00:39:31.722Z,72.42
2019-05-18T00:42:01.448Z,72.56
2019-05-18T00:44:31.249Z,72.70
2019-05-18T00:47:00.952Z,72.86
2019-05-18T00:49:30.664Z,73.10
2019-05-18T00:52:00.466Z,73.06
2019-05-18T00:54:30.153Z,73.12
2019-05-18T00:56:59.904Z,73.03
2019-05-18T00:59:29.759Z,73.15
2019-05-18T01:01:59.425Z,73.35
2019-05-18T01:04:29.238Z,73.37
2019-05-18T01:06:58.912Z,73.63
2019-05-18T01:09:28.770Z,73.93
2019-05-18T01:11:58.548Z,74.04
2019-05-18T01:14:28.227Z,74.18
2019-05-18T01:16:57.893Z,74.21
2019-05-18T01:19:27.624Z,74.29
2019-05-18T01:21:58.318Z,74.63
2019-05-18T01:24:28.010Z,74.65
2019-05-18T01:26:57.706Z,74.83
2019-05-18T01:29:27.468Z,75.20
2019-05-18T01:31:57.127Z,75.51
2019-05-18T01:34:27.900Z,75.63
2019-05-18T01:36:57.587Z,75.81
2019-05-18T01:39:27.299Z,75.81
2019-05-18T01:41:56.970Z,75.85
2019-05-18T01:44:26.996Z,76.11
2019-05-18T01:46:56.670Z,76.32
2019-05-18T01:49:26.349Z,76.49
2019-05-18T01:51:56.032Z,76.70
2019-05-18T01:54:25.735Z,76.98
2019-05-18T01:56:55.412Z,77.04
2019-05-18T01:59:25.073Z,77.25
2019-05-18T02:01:54.756Z,77.46
2019-05-18T02:04:24.418Z,77.47
2019-05-18T02:06:54.127Z,77.45
2019-05-18T02:09:23.802Z,77.67
2019-05-18T02:11:53.510Z,78.00
2019-05-18T02:14:23.184Z,77.83
2019-05-18T02:16:52.896Z,78.06
2019-05-18T02:19:24.821Z,77.94
2019-05-18T02:21:54.119Z,78.04
2019-05-18T02:24:23.796Z,78.20
2019-05-18T02:26:53.520Z,78.30
2019-05-18T02:29:23.282Z,78.20
2019-05-18T02:31:53.028Z,78.32
2019-05-18T02:34:22.702Z,78.60
2019-05-18T02:36:52.477Z,78.27
2019-05-18T02:39:22.157Z,78.55
2019-05-18T02:41:51.924Z,78.59
2019-05-18T02:44:21.715Z,78.56
2019-05-18T02:46:51.411Z,78.95
2019-05-18T02:49:21.089Z,78.89
2019-05-18T02:51:50.820Z,79.00
2019-05-18T02:54:20.493Z,79.09
2019-05-18T02:56:50.246Z,79.03
2019-05-18T02:59:19.926Z,79.29
2019-05-18T03:01:49.642Z,79.20
2019-05-18T03:04:19.354Z,79.37
2019-05-18T03:06:49.193Z,79.37
2019-05-18T03:09:18.848Z,79.52
2019-05-18T03:11:48.682Z,79.65
2019-05-18T03:14:18.612Z,79.83
2019-05-18T03:16:48.320Z,79.84
2019-05-18T03:19:18.079Z,79.91
2019-05-18T03:21:48.167Z,80.06
2019-05-18T03:24:17.825Z,79.95
2019-05-18T03:26:47.498Z,80.12
2019-05-18T03:29:17.438Z,80.12
2019-05-18T03:31:47.125Z,80.12
2019-05-18T03:34:16.801Z,80.04
2019-05-18T03:36:46.796Z,80.04
2019-05-18T03:39:16.565Z,80.05
2019-05-18T03:41:46.330Z,79.80
2019-05-18T03:44:16.031Z,79.90
2019-05-18T03:46:45.713Z,79.43
2019-05-18T03:49:25.979Z,78.75
2019-05-18T03:51:46.763Z,78.46
2019-05-18T03:54:16.425Z,78.53
2019-05-18T03:56:46.106Z,77.98
2019-05-18T03:59:15.777Z,75.87
2019-05-18T04:01:45.501Z,73.93
2019-05-18T04:04:18.475Z,72.14
2019-05-18T04:06:46.636Z,70.76
2019-05-18T04:09:16.345Z,69.76
2019-05-18T04:11:46.014Z,68.84
2019-05-18T04:14:15.688Z,67.76
2019-05-18T04:16:45.414Z,66.54
2019-05-18T04:19:15.108Z,65.71
2019-05-18T04:21:44.815Z,64.45
2019-05-18T04:24:14.529Z,63.55
2019-05-18T04:26:44.251Z,62.88
2019-05-18T04:29:13.940Z,62.07
2019-05-18T04:31:43.659Z,61.36
2019-05-18T04:34:13.334Z,60.69
2019-05-18T04:36:43.041Z,59.12
2019-05-18T04:39:12.709Z,58.36
2019-05-18T04:41:42.417Z,57.73
2019-05-18T04:44:12.116Z,57.12
2019-05-18T04:46:41.824Z,56.52
2019-05-18T04:49:11.521Z,56.04
2019-05-18T04:51:41.229Z,55.65
2019-05-18T04:54:10.974Z,55.08
2019-05-18T04:56:43.022Z,54.26
2019-05-18T04:59:12.105Z,53.54
2019-05-18T05:01:41.878Z,53.19
2019-05-18T05:04:11.563Z,52.72
2019-05-18T05:06:41.258Z,52.21
2019-05-18T05:09:10.959Z,52.04
2019-05-18T05:11:40.643Z,52.21
2019-05-18T05:14:10.796Z,51.23
2019-05-18T05:16:40.472Z,51.05
2019-05-18T05:19:10.253Z,50.26
2019-05-18T05:21:39.930Z,49.81
2019-05-18T05:24:09.661Z,49.32
2019-05-18T05:26:39.882Z,48.87
2019-05-18T05:29:09.748Z,48.46
2019-05-18T05:31:39.455Z,48.35
2019-05-18T05:34:09.174Z,47.62
2019-05-18T05:36:38.875Z,47.08
2019-05-18T05:39:08.563Z,47.73
2019-05-18T05:41:38.238Z,47.37
2019-05-18T05:44:07.934Z,46.85
2019-05-18T05:46:37.687Z,46.43
2019-05-18T05:49:07.359Z,46.02
2019-05-18T05:51:37.031Z,46.23
2019-05-18T05:54:07.848Z,46.27
2019-05-18T05:56:37.520Z,45.78
2019-05-18T05:59:07.209Z,45.77
2019-05-18T06:01:36.900Z,45.20
2019-05-18T06:04:07.661Z,45.34
2019-05-18T06:06:37.347Z,45.25
2019-05-18T06:09:08.102Z,45.40
2019-05-18T06:11:37.782Z,45.68
2019-05-18T06:14:30.685Z,43.80
2019-05-18T06:17:00.801Z,43.03
2019-05-18T06:19:30.510Z,42.49
2019-05-18T06:22:00.263Z,40.99
2019-05-18T06:24:30.007Z,40.94
2019-05-18T06:26:59.671Z,40.54
2019-05-18T06:29:29.760Z,40.20
2019-05-18T06:31:59.423Z,40.36
2019-05-18T06:34:29.252Z,39.43
2019-05-18T06:36:58.971Z,38.47
2019-05-18T06:39:28.688Z,38.95
2019-05-18T06:41:58.340Z,37.91
2019-05-18T06:44:28.024Z,38.07
2019-05-18T06:46:57.814Z,36.12
2019-05-18T06:49:27.511Z,35.74
2019-05-18T06:51:57.513Z,35.62
2019-05-18T06:54:27.205Z,36.25
2019-05-18T06:56:59.608Z,35.97
2019-05-18T06:59:29.588Z,36.83
2019-05-18T07:01:59.299Z,37.13
2019-05-18T07:04:29.053Z,37.26
2019-05-18T07:06:58.751Z,36.73
2019-05-18T07:09:28.441Z,38.05
2019-05-18T07:11:58.160Z,36.62
2019-05-18T07:14:27.844Z,36.83
2019-05-18T07:16:57.699Z,36.25
2019-05-18T07:19:27.479Z,36.53
2019-05-18T07:21:57.150Z,36.38
2019-05-18T07:24:26.838Z,37.64
2019-05-18T07:26:56.549Z,36.45
2019-05-18T07:29:26.249Z,37.94
2019-05-18T07:31:55.955Z,37.78
2019-05-18T07:34:26.621Z,37.69
2019-05-18T07:36:56.685Z,36.70
2019-05-18T07:39:26.617Z,36.50
2019-05-18T07:41:56.285Z,35.37
2019-05-18T07:44:25.998Z,34.93
2019-05-18T07:46:55.656Z,34.44
2019-05-18T07:49:25.344Z,33.60
2019-05-18T07:51:55.548Z,34.79
2019-05-18T07:54:25.237Z,35.29
2019-05-18T07:56:54.896Z,35.86
2019-05-18T07:59:24.636Z,35.92
2019-05-18T08:01:54.394Z,35.16
2019-05-18T08:04:24.274Z,35.03
2019-05-18T08:06:53.937Z,35.54
2019-05-18T08:09:23.639Z,32.19
2019-05-18T08:11:53.289Z,33.26
2019-05-18T08:14:22.978Z,33.75
2019-05-18T08:16:52.655Z,33.91
2019-05-18T08:19:22.336Z,33.09
2019-05-18T08:21:53.547Z,33.14
2019-05-18T08:24:23.674Z,33.68
2019-05-18T08:26:54.336Z,33.00
2019-05-18T08:29:24.035Z,34.41
2019-05-18T08:31:53.706Z,32.55
2019-05-18T08:34:23.415Z,32.88
2019-05-18T08:36:53.118Z,32.61
2019-05-18T08:40:27.415Z,31.27
2019-05-18T08:42:57.113Z,31.85
2019-05-18T08:45:26.768Z,30.58
2019-05-18T08:47:56.515Z,30.08
2019-05-18T08:50:26.182Z,30.33
2019-05-18T08:52:56.937Z,31.26
2019-05-18T08:55:26.597Z,32.24
2019-05-18T08:57:56.268Z,31.16
2019-05-18T09:00:26.223Z,31.78
2019-05-18T09:02:55.967Z,30.74
2019-05-18T09:05:25.683Z,30.22
2019-05-18T09:07:55.348Z,30.06
2019-05-18T09:10:25.108Z,29.10
2019-05-18T09:12:54.783Z,28.32
2019-05-18T09:15:24.759Z,28.48
2019-05-18T09:17:54.454Z,30.11
2019-05-18T09:20:24.225Z,29.35
2019-05-18T09:22:53.903Z,29.39
2019-05-18T09:25:23.799Z,29.86
2019-05-18T09:27:53.476Z,29.24
2019-05-18T09:30:23.224Z,29.96
2019-05-18T09:32:52.972Z,29.84
2019-05-18T09:35:22.837Z,30.07
2019-05-18T09:37:52.486Z,29.40
2019-05-18T09:40:22.314Z,28.79
2019-05-18T09:42:52.052Z,29.76
2019-05-18T09:45:23.517Z,28.52
2019-05-18T09:47:53.270Z,29.64
2019-05-18T09:50:23.083Z,29.62
2019-05-18T09:52:52.811Z,30.46
2019-05-18T09:55:22.647Z,31.46
2019-05-18T09:57:52.324Z,29.16
2019-05-18T10:00:22.576Z,29.78
2019-05-18T10:02:52.498Z,30.38
2019-05-18T10:05:22.302Z,30.64
2019-05-18T10:07:51.972Z,29.17
2019-05-18T10:10:21.709Z,27.70
2019-05-18T10:12:51.376Z,29.27
2019-05-18T10:15:21.246Z,29.65
2019-05-18T10:17:50.934Z,29.46
2019-05-18T10:20:20.930Z,29.77
2019-05-18T10:22:55.834Z,29.89
2019-05-18T10:25:22.047Z,28.19
2019-05-18T10:27:51.725Z,28.72
2019-05-18T10:30:21.854Z,27.26
2019-05-18T10:32:51.540Z,28.12
2019-05-18T10:35:21.227Z,27.11
2019-05-18T10:37:51.946Z,27.45
2019-05-18T10:40:21.722Z,27.76
2019-05-18T10:42:51.503Z,26.67
2019-05-18T10:45:21.375Z,27.33
2019-05-18T10:47:51.087Z,26.54
2019-05-18T10:50:20.746Z,28.07
2019-05-18T10:52:50.534Z,29.89
2019-05-18T10:55:20.432Z,30.78
2019-05-18T10:57:50.100Z,29.23
2019-05-18T11:00:20.143Z,29.78
2019-05-18T11:02:49.919Z,31.55
2019-05-18T11:05:20.454Z,30.85
2019-05-18T11:07:50.257Z,29.22
2019-05-18T11:10:22.579Z,30.61
2019-05-18T11:12:52.342Z,30.95
2019-05-18T11:15:23.140Z,30.27
2019-05-18T11:17:52.853Z,30.78
2019-05-18T11:20:22.815Z,32.22
2019-05-18T11:22:52.526Z,30.63
2019-05-18T11:25:22.269Z,29.19
2019-05-18T11:27:51.986Z,30.56
2019-05-18T11:30:22.044Z,30.57
2019-05-18T11:32:51.740Z,31.27
2019-05-18T11:35:21.762Z,32.39
2019-05-18T11:37:51.503Z,30.89
2019-05-18T11:40:21.630Z,29.92
2019-05-18T11:42:51.339Z,31.44
2019-05-18T11:45:21.692Z,31.89
2019-05-18T11:47:51.443Z,32.87
2019-05-18T11:50:22.380Z,33.86
2019-05-18T11:52:52.144Z,32.59
2019-05-18T11:55:22.375Z,31.48
2019-05-18T11:57:52.094Z,32.04
2019-05-18T12:00:22.834Z,30.82
2019-05-18T12:02:52.522Z,29.39
2019-05-18T12:05:22.256Z,28.72
2019-05-18T12:07:52.009Z,30.07
2019-05-18T12:10:22.033Z,31.88
2019-05-18T12:12:51.793Z,33.33
2019-05-18T12:15:22.676Z,34.53
2019-05-18T12:17:52.385Z,35.37
2019-05-18T12:20:24.209Z,35.50
2019-05-18T12:22:53.852Z,34.36
2019-05-18T12:25:23.552Z,33.33
2019-05-18T12:27:53.321Z,32.12
2019-05-18T12:30:24.237Z,29.59
2019-05-18T12:32:53.987Z,30.85
2019-05-18T12:35:23.923Z,29.26
2019-05-18T12:37:54.610Z,31.41
2019-05-18T12:40:24.894Z,32.00
2019-05-18T12:42:54.647Z,32.84
2019-05-18T12:45:24.512Z,31.09
2019-05-18T12:47:54.291Z,31.87
2019-05-18T12:50:24.851Z,33.55
2019-05-18T12:52:54.531Z,35.51
2019-05-18T12:55:24.374Z,34.70
2019-05-18T12:57:54.150Z,35.20
2019-05-18T13:00:24.419Z,36.39
2019-05-18T13:02:54.114Z,36.65
2019-05-18T13:05:23.934Z,35.37
2019-05-18T13:07:53.627Z,37.26
2019-05-18T13:10:23.649Z,35.54
2019-05-18T13:12:53.326Z,34.90
2019-05-18T13:15:23.263Z,34.80
2019-05-18T13:17:52.948Z,36.12
2019-05-18T13:20:23.063Z,35.26
2019-05-18T13:22:52.756Z,34.47
2019-05-18T13:25:22.638Z,34.38
2019-05-18T13:27:52.396Z,34.85
2019-05-18T13:30:23.303Z,35.27
2019-05-18T13:32:52.994Z,35.22
2019-05-18T13:35:22.919Z,35.90
2019-05-18T13:37:52.615Z,36.65
2019-05-18T13:40:23.333Z,35.97
2019-05-18T13:42:53.011Z,35.57
2019-05-18T13:45:22.946Z,34.44
2019-05-18T13:47:52.719Z,35.06
2019-05-18T13:50:22.461Z,35.16
2019-05-18T13:52:52.262Z,34.03
2019-05-18T13:55:22.063Z,34.55
2019-05-18T13:57:51.743Z,35.94
2019-05-18T14:00:21.489Z,33.81
2019-05-18T14:02:51.313Z,35.58
2019-05-18T14:05:21.261Z,33.19
2019-05-18T14:07:50.972Z,35.55
2019-05-18T14:10:21.862Z,35.23
2019-05-18T14:12:51.586Z,34.51
2019-05-18T14:15:23.012Z,33.63
2019-05-18T14:17:53.026Z,34.28
2019-05-18T14:20:22.716Z,35.55
2019-05-18T14:22:52.376Z,35.37
2019-05-18T14:25:22.138Z,34.79
2019-05-18T14:27:51.807Z,34.43
2019-05-18T14:30:23.141Z,36.00
2019-05-18T14:32:52.793Z,36.38
2019-05-18T14:35:22.465Z,34.13
2019-05-18T14:37:52.148Z,35.06
2019-05-18T14:40:22.027Z,34.06
2019-05-18T14:42:52.674Z,36.98
2019-05-18T14:45:22.451Z,34.80
2019-05-18T14:47:52.123Z,37.49
2019-05-18T14:50:22.234Z,34.42
2019-05-18T14:52:52.009Z,34.27
2019-05-18T14:55:32.892Z,37.95
2019-05-18T14:57:53.276Z,35.24
2019-05-18T15:00:22.961Z,35.57
2019-05-18T15:02:52.618Z,37.34
2019-05-18T15:05:22.431Z,35.59
2019-05-18T15:07:52.089Z,36.99
2019-05-18T15:10:21.967Z,36.04
2019-05-18T15:12:51.935Z,35.75
2019-05-18T15:15:22.101Z,34.65
2019-05-18T15:17:51.790Z,34.96
2019-05-18T15:20:22.989Z,35.26
2019-05-18T15:22:52.656Z,34.16
2019-05-18T15:25:22.301Z,37.20
2019-05-18T15:27:52.027Z,38.22
2019-05-18T15:30:21.967Z,35.45
2019-05-18T15:32:51.630Z,36.33
2019-05-18T15:35:21.401Z,34.98
2019-05-18T15:37:51.071Z,36.69
2019-05-18T15:40:20.827Z,35.83
2019-05-18T15:42:50.599Z,35.82
2019-05-18T15:45:20.687Z,36.18
2019-05-18T15:47:50.429Z,35.05
2019-05-18T15:50:20.906Z,36.09
2019-05-18T15:52:50.621Z,35.14
2019-05-18T15:55:20.390Z,34.06
2019-05-18T15:57:50.057Z,35.55
2019-05-18T16:00:20.826Z,36.54
2019-05-18T16:02:50.473Z,35.15
2019-05-18T16:05:20.217Z,35.97
2019-05-18T16:07:49.938Z,35.30
2019-05-18T16:10:20.109Z,35.76
2019-05-18T16:12:49.791Z,36.09
2019-05-18T16:15:19.836Z,34.62
2019-05-18T16:17:49.584Z,35.06
2019-05-18T16:20:19.418Z,36.26
2019-05-18T16:22:49.434Z,37.65
2019-05-18T16:25:19.759Z,35.70
2019-05-18T16:27:49.523Z,37.46
2019-05-18T16:30:19.550Z,37.52
2019-05-18T16:32:49.331Z,36.07
2019-05-18T16:35:19.489Z,35.21
2019-05-18T16:37:49.241Z,36.57
2019-05-18T16:40:20.028Z,34.87
2019-05-18T16:42:49.670Z,35.41
2019-05-18T16:45:19.658Z,36.82
2019-05-18T16:47:49.311Z,37.36
2019-05-18T16:50:19.218Z,37.30
2019-05-18T16:52:49.927Z,36.62
2019-05-18T16:55:19.739Z,38.03
2019-05-18T16:57:49.398Z,37.23
2019-05-18T17:00:20.844Z,36.25
2019-05-18T17:02:50.636Z,36.38
2019-05-18T17:05:20.506Z,35.88
2019-05-18T17:07:50.191Z,35.86
2019-05-18T17:10:19.987Z,37.05
2019-05-18T17:12:50.203Z,37.10
2019-05-18T17:15:20.299Z,35.91
2019-05-18T17:17:49.989Z,38.55
2019-05-18T17:20:19.929Z,38.44
2019-05-18T17:22:49.706Z,38.40
2019-05-18T17:25:19.505Z,38.38
2019-05-18T17:27:49.241Z,38.08
2019-05-18T17:30:19.340Z,38.59
2019-05-18T17:32:49.073Z,38.24
2019-05-18T17:35:18.871Z,38.64
2019-05-18T17:37:48.551Z,38.00
2019-05-18T17:40:18.604Z,38.12
2019-05-18T17:42:48.444Z,39.13
2019-05-18T17:45:18.321Z,38.32
2019-05-18T17:47:48.042Z,38.50
2019-05-18T17:50:18.269Z,38.83
2019-05-18T17:52:47.958Z,38.68
2019-05-18T17:55:17.875Z,39.43
2019-05-18T17:57:47.558Z,38.91
2019-05-18T18:00:17.594Z,39.44
2019-05-18T18:02:48.243Z,39.64
2019-05-18T18:05:18.465Z,40.10
2019-05-18T18:07:48.228Z,40.37
2019-05-18T18:10:19.028Z,40.53
2019-05-18T18:12:48.789Z,40.30
2019-05-18T18:15:18.743Z,40.43
2019-05-18T18:17:48.493Z,40.41
2019-05-18T18:20:18.441Z,40.28
2019-05-18T18:22:48.122Z,40.07
2019-05-18T18:25:17.807Z,39.91
2019-05-18T18:27:47.505Z,40.25
2019-05-18T18:30:17.372Z,40.60
2019-05-18T18:32:47.036Z,41.12
2019-05-18T18:35:16.845Z,41.57
2019-05-18T18:37:46.517Z,41.81
2019-05-18T18:40:16.249Z,41.58
2019-05-18T18:42:45.965Z,41.79
2019-05-18T18:45:16.501Z,43.39
2019-05-18T18:47:46.254Z,43.39
2019-05-18T18:50:16.008Z,44.21
2019-05-18T18:52:45.692Z,44.55
2019-05-18T18:55:15.540Z,43.11
2019-05-18T18:57:45.333Z,43.37
2019-05-18T19:00:15.448Z,43.87
2019-05-18T19:02:45.087Z,43.65
2019-05-18T19:05:15.250Z,44.14
2019-05-18T19:07:45.054Z,45.94
2019-05-18T19:10:16.556Z,46.31
2019-05-18T19:12:46.304Z,45.94
2019-05-18T19:15:16.107Z,45.28
2019-05-18T19:17:45.801Z,45.04
2019-05-18T19:20:15.727Z,45.19
2019-05-18T19:22:45.426Z,45.52
2019-05-18T19:25:15.298Z,45.65
2019-05-18T19:27:54.646Z,45.90
2019-05-18T19:30:17.116Z,49.49
2019-05-18T19:32:46.773Z,49.78
2019-05-18T19:35:16.530Z,50.75
2019-05-18T19:37:46.254Z,52.11
2019-05-18T19:40:16.079Z,52.78
2019-05-18T19:42:45.755Z,52.38
2019-05-18T19:45:15.828Z,53.29
2019-05-18T19:47:45.523Z,52.83
2019-05-18T19:50:15.417Z,54.38
2019-05-18T19:52:45.124Z,54.53
2019-05-18T19:55:14.944Z,54.29
2019-05-18T19:57:44.635Z,55.01
2019-05-18T20:00:15.737Z,55.57
2019-05-18T20:02:45.443Z,56.10
2019-05-18T20:05:15.409Z,56.14
2019-05-18T20:07:45.130Z,57.28
2019-05-18T20:10:14.964Z,56.85
2019-05-18T20:12:44.751Z,57.27
2019-05-18T20:15:14.819Z,58.07
2019-05-18T20:17:44.511Z,58.62
2019-05-18T20:20:14.733Z,58.52
2019-05-18T20:22:44.450Z,59.02
2019-05-18T20:25:14.540Z,58.66
2019-05-18T20:31:21.284Z,60.29
2019-05-18T20:33:51.571Z,60.94
2019-05-18T20:36:21.325Z,60.81
2019-05-18T20:38:51.178Z,61.22
2019-05-18T20:41:20.860Z,62.61
2019-05-18T20:43:50.637Z,61.97
2019-05-18T20:46:20.361Z,62.13
2019-05-18T20:48:51.308Z,62.20
2019-05-18T20:51:56.889Z,61.31
2019-05-18T20:54:26.674Z,61.86
2019-05-18T20:56:56.555Z,61.98
2019-05-18T20:59:26.393Z,62.19
2019-05-18T21:01:57.235Z,61.38
2019-05-18T21:04:27.126Z,61.59
2019-05-18T21:06:56.906Z,60.85
2019-05-18T21:09:26.867Z,62.34
2019-05-18T21:11:56.749Z,62.06
2019-05-18T21:14:26.647Z,62.08
2019-05-18T21:16:56.394Z,62.56
2019-05-18T21:19:26.311Z,63.16
2019-05-18T21:21:56.145Z,62.83
2019-05-18T21:24:25.916Z,62.92
2019-05-18T21:26:55.675Z,63.34
2019-05-18T21:29:25.462Z,63.65
2019-05-18T21:31:55.341Z,63.78
2019-05-18T21:34:25.112Z,64.26
2019-05-18T21:36:55.919Z,64.38
2019-05-18T21:39:25.823Z,64.97
2019-05-18T21:41:55.563Z,64.42
2019-05-18T21:44:25.378Z,64.12
2019-05-18T21:46:55.125Z,64.10
2019-05-18T21:49:24.980Z,64.63
2019-05-18T21:51:54.871Z,66.38
2019-05-18T21:54:24.603Z,66.44
2019-05-18T21:56:54.371Z,66.28
2019-05-18T21:59:24.223Z,65.75
2019-05-18T22:01:54.039Z,66.18
2019-05-18T22:04:23.832Z,67.09
2019-05-18T22:06:53.610Z,67.83
2019-05-18T22:09:23.489Z,68.60
2019-05-18T22:11:53.299Z,69.27
2019-05-18T22:14:23.129Z,69.34
2019-05-18T22:16:52.913Z,70.34
2019-05-18T22:19:22.808Z,70.48
2019-05-18T22:21:52.695Z,69.28
2019-05-18T22:24:22.502Z,68.59
2019-05-18T22:26:52.275Z,68.72
2019-05-18T22:29:22.116Z,69.03
2019-05-18T22:31:51.807Z,68.75
2019-05-18T22:34:21.742Z,68.33
2019-05-18T22:36:51.496Z,68.21
2019-05-18T22:39:21.313Z,68.09
2019-05-18T22:41:51.087Z,68.62
2019-05-18T22:44:20.820Z,67.79
2019-05-18T22:46:50.529Z,67.87
2019-05-18T22:49:20.310Z,67.63
2019-05-18T22:51:50.074Z,67.80
2019-05-18T22:54:19.911Z,68.12
2019-05-18T22:56:50.880Z,69.08
2019-05-18T22:59:20.593Z,69.88
2019-05-18T23:01:50.436Z,70.46
2019-05-18T23:04:20.199Z,70.09
2019-05-18T23:06:49.928Z,70.90
2019-05-18T23:09:19.790Z,70.75
2019-05-18T23:11:49.676Z,69.84
2019-05-18T23:14:19.403Z,69.90
2019-05-18T23:16:49.211Z,69.73
2019-05-18T23:19:19.058Z,69.71
2019-05-18T23:21:48.886Z,70.36
2019-05-18T23:24:18.762Z,70.96
2019-05-18T23:26:48.540Z,71.99
2019-05-18T23:29:18.365Z,72.58
2019-05-18T23:31:48.281Z,72.63
2019-05-18T23:34:19.073Z,72.86
2019-05-18T23:36:48.827Z,73.93
2019-05-18T23:39:18.661Z,74.00
2019-05-18T23:41:48.596Z,73.70
2019-05-18T23:44:18.479Z,72.65
2019-05-18T23:46:48.390Z,71.59
2019-05-18T23:49:18.277Z,72.12
2019-05-18T23:51:48.057Z,72.49
2019-05-18T23:54:17.807Z,72.72
2019-05-18T23:56:47.533Z,72.08
2019-05-18T23:59:17.379Z,72.10
